createdAt,value
2022-08-26T00:01:56.668Z,23.51
2022-08-26T00:04:25.743Z,23.51
2022-08-26T00:06:56.028Z,23.51
2022-08-26T00:09:24.932Z,23.51
2022-08-26T00:11:54.563Z,23.50
2022-08-26T00:14:28.304Z,23.52
2022-08-26T00:16:57.193Z,23.52
2022-08-26T00:19:24.864Z,23.43
2022-08-26T00:21:51.953Z,23.52
2022-08-26T00:24:20.908Z,23.46
2022-08-26T00:26:49.876Z,23.46
2022-08-26T00:29:17.934Z,23.44
2022-08-26T00:31:45.747Z,23.36
2022-08-26T00:34:14.225Z,23.35
2022-08-26T00:36:43.556Z,23.40
2022-08-26T00:39:11.321Z,23.37
2022-08-26T00:41:40.929Z,23.41
2022-08-26T00:44:11.172Z,23.42
2022-08-26T00:46:46.924Z,23.43
2022-08-26T00:49:23.008Z,23.45
2022-08-26T00:51:58.682Z,23.45
2022-08-26T00:54:31.057Z,23.47
2022-08-26T00:57:16.386Z,23.41
2022-08-26T00:59:52.993Z,23.49
2022-08-26T01:02:21.516Z,23.48
2022-08-26T01:04:59.898Z,23.45
2022-08-26T01:07:31.455Z,23.42
2022-08-26T01:10:03.243Z,23.42
2022-08-26T01:12:40.212Z,23.39
2022-08-26T01:15:21.694Z,23.40
2022-08-26T01:17:49.803Z,23.45
2022-08-26T01:20:48.044Z,23.46
2022-08-26T01:23:16.401Z,23.41
2022-08-26T01:25:54.823Z,23.47
2022-08-26T01:28:33.826Z,23.40
2022-08-26T01:31:05.249Z,23.44
2022-08-26T01:34:02.012Z,23.47
2022-08-26T01:36:30.740Z,23.52
2022-08-26T01:38:58.069Z,23.52
2022-08-26T01:41:29.161Z,23.53
2022-08-26T01:43:57.994Z,23.53
2022-08-26T01:46:28.313Z,23.53
2022-08-26T01:49:01.117Z,23.55
2022-08-26T01:51:30.245Z,23.56
2022-08-26T01:53:58.446Z,23.53
2022-08-26T01:56:26.956Z,23.54
2022-08-26T01:59:05.667Z,23.59
2022-08-26T02:01:33.812Z,23.62
2022-08-26T02:04:22.050Z,23.63
2022-08-26T02:06:50.518Z,23.63
2022-08-26T02:09:19.748Z,23.58
2022-08-26T02:11:48.591Z,23.56
2022-08-26T02:14:28.825Z,23.56
2022-08-26T02:16:57.259Z,23.51
2022-08-26T02:19:33.118Z,23.57
2022-08-26T02:22:05.772Z,23.58
2022-08-26T02:24:57.157Z,23.56
2022-08-26T02:27:32.811Z,23.51
2022-08-26T02:30:26.453Z,23.52
2022-08-26T02:32:58.323Z,23.47
2022-08-26T02:35:25.725Z,23.49
2022-08-26T02:37:53.194Z,23.48
2022-08-26T02:40:26.546Z,23.48
2022-08-26T02:42:57.000Z,23.40
2022-08-26T02:45:26.500Z,23.44
2022-08-26T02:47:53.974Z,23.40
2022-08-26T02:50:21.361Z,23.30
2022-08-26T02:52:48.699Z,23.33
2022-08-26T02:55:16.111Z,23.36
2022-08-26T02:57:43.736Z,23.36
2022-08-26T03:00:14.718Z,23.41
2022-08-26T03:02:42.331Z,23.37
2022-08-26T03:05:11.437Z,23.43
2022-08-26T03:07:39.316Z,23.40
2022-08-26T03:10:08.725Z,23.46
2022-08-26T03:12:37.034Z,23.46
2022-08-26T03:15:17.411Z,23.47
2022-08-26T03:17:49.207Z,23.47
2022-08-26T03:20:18.546Z,23.45
2022-08-26T03:22:45.879Z,23.40
2022-08-26T03:25:16.672Z,23.47
2022-08-26T03:27:44.396Z,23.41
2022-08-26T03:30:33.490Z,23.45
2022-08-26T03:33:01.996Z,23.50
2022-08-26T03:35:30.154Z,23.53
2022-08-26T03:37:57.372Z,23.50
2022-08-26T03:40:24.828Z,23.50
2022-08-26T03:42:56.180Z,23.58
2022-08-26T03:45:23.392Z,23.57
2022-08-26T03:47:51.615Z,23.59
2022-08-26T03:50:24.321Z,23.59
2022-08-26T03:52:54.243Z,23.60
2022-08-26T03:55:25.339Z,23.61
2022-08-26T03:57:54.805Z,23.62
2022-08-26T04:00:22.774Z,23.56
2022-08-26T04:02:53.445Z,23.58
2022-08-26T04:05:22.979Z,23.48
2022-08-26T04:07:51.313Z,23.55
2022-08-26T04:10:29.170Z,23.55
2022-08-26T04:13:00.177Z,23.55
2022-08-26T04:15:28.073Z,23.53
2022-08-26T04:17:55.849Z,23.50
2022-08-26T04:20:23.209Z,23.56
2022-08-26T04:22:51.111Z,23.52
2022-08-26T04:25:18.680Z,23.53
2022-08-26T04:27:48.432Z,23.48
2022-08-26T04:30:16.705Z,23.52
2022-08-26T04:32:44.114Z,23.55
2022-08-26T04:35:11.400Z,23.52
2022-08-26T04:37:38.565Z,23.56
2022-08-26T04:40:06.774Z,23.57
2022-08-26T04:42:34.326Z,23.52
2022-08-26T04:45:05.817Z,23.53
2022-08-26T04:47:37.565Z,23.53
2022-08-26T04:50:06.970Z,23.49
2022-08-26T04:52:36.593Z,23.50
2022-08-26T04:55:06.526Z,23.52
2022-08-26T04:57:36.086Z,23.52
2022-08-26T05:00:07.854Z,23.54
2022-08-26T05:02:36.190Z,23.54
2022-08-26T05:05:06.979Z,23.51
2022-08-26T05:07:35.732Z,23.59
2022-08-26T05:10:04.754Z,23.61
2022-08-26T05:12:36.030Z,23.59
2022-08-26T05:15:05.971Z,23.57
2022-08-26T05:17:33.410Z,23.53
2022-08-26T05:20:00.486Z,23.59
2022-08-26T05:22:27.492Z,23.57
2022-08-26T05:24:54.482Z,23.60
2022-08-26T05:27:21.564Z,23.59
2022-08-26T05:29:48.578Z,23.65
2022-08-26T05:32:21.616Z,23.60
2022-08-26T05:34:48.593Z,23.68
2022-08-26T05:37:19.615Z,23.68
2022-08-26T05:39:51.399Z,23.71
2022-08-26T05:42:19.884Z,23.65
2022-08-26T05:44:56.108Z,23.68
2022-08-26T05:47:25.364Z,23.70
2022-08-26T05:49:53.051Z,23.72
2022-08-26T05:52:20.434Z,23.71
2022-08-26T05:54:47.643Z,23.71
2022-08-26T05:57:15.293Z,23.68
2022-08-26T05:59:42.600Z,23.69
2022-08-26T06:02:10.126Z,23.60
2022-08-26T06:04:37.084Z,23.68
2022-08-26T06:07:04.138Z,23.70
2022-08-26T06:09:32.720Z,23.70
2022-08-26T06:12:01.767Z,23.70
2022-08-26T06:14:30.487Z,23.69
2022-08-26T06:17:00.782Z,23.73
2022-08-26T06:19:33.142Z,23.71
2022-08-26T06:22:23.506Z,23.68
2022-08-26T06:25:09.280Z,23.63
2022-08-26T06:27:37.002Z,23.71
2022-08-26T06:30:04.653Z,23.73
2022-08-26T06:32:31.880Z,23.67
2022-08-26T06:34:59.138Z,23.71
2022-08-26T06:37:26.144Z,23.73
2022-08-26T06:39:53.181Z,23.76
2022-08-26T06:42:20.385Z,23.73
2022-08-26T06:44:47.462Z,23.79
2022-08-26T06:47:15.123Z,23.89
2022-08-26T06:49:42.148Z,23.87
2022-08-26T06:52:11.318Z,23.91
2022-08-26T06:54:43.050Z,23.95
2022-08-26T06:57:12.436Z,24.03
2022-08-26T06:59:41.585Z,23.97
2022-08-26T07:02:08.632Z,24.05
2022-08-26T07:04:41.044Z,24.12
2022-08-26T07:07:09.748Z,24.18
2022-08-26T07:09:37.409Z,24.24
2022-08-26T07:12:06.841Z,24.26
2022-08-26T07:14:34.993Z,24.27
2022-08-26T07:17:02.228Z,24.23
2022-08-26T07:19:30.944Z,24.31
2022-08-26T07:22:02.036Z,24.32
2022-08-26T07:24:29.665Z,24.31
2022-08-26T07:27:06.515Z,24.33
2022-08-26T07:29:35.247Z,24.29
2022-08-26T07:32:03.220Z,24.35
2022-08-26T07:34:32.179Z,24.39
2022-08-26T07:37:01.080Z,24.42
2022-08-26T07:39:28.786Z,24.49
2022-08-26T07:42:01.582Z,24.59
2022-08-26T07:44:35.631Z,24.71
2022-08-26T07:47:02.679Z,24.78
2022-08-26T07:49:29.954Z,24.72
2022-08-26T07:51:57.466Z,24.78
2022-08-26T07:54:26.814Z,24.93
2022-08-26T07:56:55.905Z,24.94
2022-08-26T07:59:24.038Z,24.94
2022-08-26T08:01:51.595Z,24.84
2022-08-26T08:04:25.548Z,24.88
2022-08-26T08:06:54.410Z,24.93
2022-08-26T08:09:22.372Z,24.91
2022-08-26T08:11:50.108Z,24.93
2022-08-26T08:14:20.466Z,24.97
2022-08-26T08:16:53.312Z,25.00
2022-08-26T08:19:23.208Z,24.98
2022-08-26T08:21:51.555Z,25.06
2022-08-26T08:24:19.350Z,25.13
2022-08-26T08:26:46.421Z,25.24
2022-08-26T08:29:14.214Z,25.25
2022-08-26T08:31:58.455Z,25.34
2022-08-26T08:34:28.652Z,25.46
2022-08-26T08:36:57.223Z,25.47
2022-08-26T08:39:26.382Z,25.63
2022-08-26T08:42:30.981Z,25.71
2022-08-26T08:45:04.956Z,25.80
2022-08-26T08:47:38.988Z,25.88
2022-08-26T08:50:22.991Z,25.93
2022-08-26T08:53:16.475Z,25.97
2022-08-26T08:56:26.548Z,26.02
2022-08-26T08:59:11.327Z,26.02
2022-08-26T09:01:58.972Z,26.06
2022-08-26T09:05:07.853Z,26.16
2022-08-26T09:07:44.640Z,26.13
2022-08-26T09:10:34.694Z,26.30
2022-08-26T09:13:08.031Z,26.46
2022-08-26T09:15:50.840Z,26.67
2022-08-26T09:18:51.326Z,26.80
2022-08-26T09:21:21.109Z,26.82
2022-08-26T09:23:52.275Z,26.79
2022-08-26T09:26:36.372Z,26.74
2022-08-26T09:29:24.071Z,26.76
2022-08-26T09:32:12.926Z,26.80
2022-08-26T09:35:03.440Z,26.77
2022-08-26T09:37:40.900Z,26.92
2022-08-26T09:40:29.602Z,26.98
2022-08-26T09:43:15.892Z,26.99
2022-08-26T09:45:50.847Z,27.06
2022-08-26T09:48:36.343Z,27.09
2022-08-26T09:51:26.511Z,27.16
2022-08-26T09:54:02.983Z,27.21
2022-08-26T09:56:39.676Z,27.19
2022-08-26T09:59:11.307Z,27.32
2022-08-26T10:01:44.747Z,27.31
2022-08-26T10:04:14.580Z,27.33
2022-08-26T10:06:56.219Z,27.31
2022-08-26T10:09:26.471Z,27.22
2022-08-26T10:12:11.957Z,27.23
2022-08-26T10:14:47.961Z,27.20
2022-08-26T10:17:30.924Z,27.16
2022-08-26T10:20:24.071Z,27.08
2022-08-26T10:23:12.921Z,27.03
2022-08-26T10:26:27.368Z,27.10
2022-08-26T10:29:12.279Z,27.13
2022-08-26T10:32:02.646Z,27.18
2022-08-26T10:34:33.360Z,27.23
2022-08-26T10:37:15.747Z,27.31
2022-08-26T10:40:08.079Z,27.41
2022-08-26T10:42:52.195Z,27.36
2022-08-26T10:45:25.391Z,27.41
2022-08-26T10:48:11.675Z,27.33
2022-08-26T10:50:43.182Z,27.42
2022-08-26T10:53:45.112Z,27.38
2022-08-26T10:56:37.133Z,27.63
2022-08-26T10:59:39.986Z,27.70
2022-08-26T11:02:40.154Z,27.75
2022-08-26T11:05:23.617Z,27.78
2022-08-26T11:08:20.495Z,27.71
2022-08-26T11:10:55.420Z,27.59
2022-08-26T11:14:28.992Z,27.50
2022-08-26T11:16:58.929Z,27.52
2022-08-26T11:19:59.502Z,27.48
2022-08-26T11:22:36.313Z,27.39
2022-08-26T11:25:11.457Z,27.27
2022-08-26T11:27:38.927Z,27.31
2022-08-26T11:30:18.451Z,27.21
2022-08-26T11:32:59.002Z,27.13
2022-08-26T11:35:26.654Z,27.10
2022-08-26T11:38:24.129Z,27.09
2022-08-26T11:41:17.501Z,27.14
2022-08-26T11:43:49.321Z,27.18
2022-08-26T11:46:27.294Z,27.02
2022-08-26T11:49:14.738Z,27.26
2022-08-26T11:51:45.230Z,27.31
2022-08-26T11:54:30.498Z,27.28
2022-08-26T11:57:09.367Z,27.34
2022-08-26T11:59:41.881Z,27.37
2022-08-26T12:02:17.947Z,27.36
2022-08-26T12:04:50.622Z,27.23
2022-08-26T12:07:27.612Z,27.36
2022-08-26T12:10:02.484Z,27.15
2022-08-26T12:12:35.059Z,27.28
2022-08-26T12:15:18.641Z,27.24
2022-08-26T12:17:51.790Z,27.25
2022-08-26T12:20:45.952Z,27.21
2022-08-26T12:23:28.229Z,27.18
2022-08-26T12:26:31.165Z,27.17
2022-08-26T12:29:19.688Z,27.18
2022-08-26T12:31:48.469Z,27.11
2022-08-26T12:34:18.528Z,27.24
2022-08-26T12:36:55.534Z,27.32
2022-08-26T12:39:30.398Z,27.35
2022-08-26T12:42:20.671Z,27.42
2022-08-26T12:45:03.869Z,27.25
2022-08-26T12:47:42.130Z,27.69
2022-08-26T12:50:32.452Z,27.84
2022-08-26T12:53:34.884Z,27.76
2022-08-26T12:56:19.334Z,27.89
2022-08-26T12:59:22.641Z,27.77
2022-08-26T13:01:50.785Z,27.50
2022-08-26T13:04:37.899Z,27.82
2022-08-26T13:07:25.275Z,27.80
2022-08-26T13:09:58.124Z,27.74
2022-08-26T13:12:41.066Z,27.61
2022-08-26T13:15:08.608Z,27.38
2022-08-26T13:17:36.058Z,27.31
2022-08-26T13:20:04.554Z,27.23
2022-08-26T13:22:32.341Z,27.13
2022-08-26T13:24:59.539Z,27.03
2022-08-26T13:27:27.939Z,26.95
2022-08-26T13:29:57.643Z,26.87
2022-08-26T13:32:27.197Z,26.85
2022-08-26T13:34:56.695Z,26.80
2022-08-26T13:37:35.066Z,26.62
2022-08-26T13:40:07.008Z,26.69
2022-08-26T13:42:34.643Z,26.66
2022-08-26T13:45:03.444Z,26.62
2022-08-26T13:47:30.810Z,26.60
2022-08-26T13:49:58.260Z,26.40
2022-08-26T13:52:30.332Z,26.54
2022-08-26T13:55:00.585Z,26.01
2022-08-26T13:57:30.499Z,26.28
2022-08-26T13:59:59.587Z,26.25
2022-08-26T14:02:28.303Z,26.28
2022-08-26T14:04:55.980Z,26.24
2022-08-26T14:07:23.409Z,26.18
2022-08-26T14:09:50.587Z,26.13
2022-08-26T14:12:18.047Z,26.04
2022-08-26T14:14:45.137Z,25.98
2022-08-26T14:17:20.521Z,25.96
2022-08-26T14:19:50.536Z,25.91
2022-08-26T14:22:21.299Z,25.87
2022-08-26T14:24:50.272Z,25.83
2022-08-26T14:27:17.541Z,25.77
2022-08-26T14:29:44.647Z,25.71
2022-08-26T14:32:26.120Z,25.51
2022-08-26T14:34:54.163Z,25.62
2022-08-26T14:37:21.551Z,25.61
2022-08-26T14:39:48.716Z,25.58
2022-08-26T14:42:25.813Z,25.54
2022-08-26T14:45:02.530Z,25.50
2022-08-26T14:47:29.755Z,25.45
2022-08-26T14:49:57.737Z,25.41
2022-08-26T14:52:25.487Z,25.36
2022-08-26T14:54:55.107Z,25.27
2022-08-26T14:57:22.854Z,25.19
2022-08-26T14:59:50.525Z,25.20
2022-08-26T15:02:32.626Z,25.20
2022-08-26T15:05:06.491Z,25.12
2022-08-26T15:07:33.553Z,25.13
2022-08-26T15:10:00.823Z,25.11
2022-08-26T15:12:28.007Z,25.06
2022-08-26T15:14:55.121Z,25.00
2022-08-26T15:17:22.335Z,24.96
2022-08-26T15:19:49.379Z,24.97
2022-08-26T15:22:16.737Z,25.10
2022-08-26T15:24:43.901Z,25.11
2022-08-26T15:27:11.373Z,25.11
2022-08-26T15:29:39.149Z,25.03
2022-08-26T15:32:06.369Z,24.96
2022-08-26T15:34:33.468Z,25.03
2022-08-26T15:37:00.521Z,24.97
2022-08-26T15:39:28.391Z,24.96
2022-08-26T15:41:56.207Z,24.83
2022-08-26T15:44:26.016Z,24.97
2022-08-26T15:46:58.605Z,24.98
2022-08-26T15:49:27.501Z,24.94
2022-08-26T15:51:55.011Z,24.95
2022-08-26T15:54:23.679Z,24.98
2022-08-26T15:56:52.436Z,24.99
2022-08-26T15:59:22.197Z,24.93
2022-08-26T16:01:50.780Z,24.80
2022-08-26T16:04:18.685Z,24.93
2022-08-26T16:06:50.219Z,24.90
2022-08-26T16:09:19.368Z,24.74
2022-08-26T16:11:46.651Z,24.56
2022-08-26T16:14:14.094Z,24.89
2022-08-26T16:16:41.917Z,24.69
2022-08-26T16:19:09.667Z,24.78
2022-08-26T16:21:39.573Z,24.55
2022-08-26T16:24:07.832Z,24.79
2022-08-26T16:26:37.786Z,24.73
2022-08-26T16:29:09.576Z,24.73
2022-08-26T16:31:38.329Z,24.34
2022-08-26T16:34:07.893Z,24.73
2022-08-26T16:36:38.123Z,24.70
2022-08-26T16:39:08.319Z,24.57
2022-08-26T16:41:36.201Z,24.68
2022-08-26T16:44:04.834Z,24.54
2022-08-26T16:46:33.997Z,24.58
2022-08-26T16:49:04.296Z,24.70
2022-08-26T16:51:32.623Z,24.69
2022-08-26T16:54:07.616Z,24.65
2022-08-26T16:56:36.503Z,24.71
2022-08-26T16:59:11.911Z,24.71
2022-08-26T17:01:40.077Z,24.71
2022-08-26T17:04:07.403Z,24.63
2022-08-26T17:06:44.477Z,24.68
2022-08-26T17:09:12.389Z,24.67
2022-08-26T17:11:39.615Z,24.68
2022-08-26T17:14:06.925Z,24.67
2022-08-26T17:16:34.515Z,24.70
2022-08-26T17:19:02.370Z,24.70
2022-08-26T17:21:29.599Z,24.73
2022-08-26T17:23:56.746Z,24.66
2022-08-26T17:26:24.070Z,24.67
2022-08-26T17:28:51.996Z,24.64
2022-08-26T17:31:20.820Z,24.66
2022-08-26T17:33:53.769Z,24.65
2022-08-26T17:36:27.504Z,24.60
2022-08-26T17:38:57.932Z,24.59
2022-08-26T17:41:26.516Z,24.64
2022-08-26T17:43:53.941Z,24.62
2022-08-26T17:46:21.364Z,24.60
2022-08-26T17:48:48.512Z,24.59
2022-08-26T17:51:19.266Z,24.60
2022-08-26T17:53:47.987Z,24.57
2022-08-26T17:56:19.376Z,24.59
2022-08-26T17:58:51.086Z,24.59
2022-08-26T18:01:20.464Z,24.58
2022-08-26T18:03:48.942Z,24.48
2022-08-26T18:06:16.010Z,24.55
2022-08-26T18:08:43.970Z,24.49
2022-08-26T18:11:14.666Z,24.52
2022-08-26T18:13:47.404Z,24.49
2022-08-26T18:16:17.959Z,24.23
2022-08-26T18:18:47.213Z,24.46
2022-08-26T18:21:18.673Z,24.48
2022-08-26T18:23:47.599Z,24.47
2022-08-26T18:26:28.166Z,24.46
2022-08-26T18:29:07.427Z,24.46
2022-08-26T18:31:35.177Z,24.44
2022-08-26T18:34:03.694Z,24.40
2022-08-26T18:36:35.784Z,24.41
2022-08-26T18:39:05.554Z,24.43
2022-08-26T18:41:38.513Z,24.43
2022-08-26T18:44:05.572Z,24.41
2022-08-26T18:46:32.657Z,24.45
2022-08-26T18:48:59.797Z,24.42
2022-08-26T18:51:32.899Z,24.46
2022-08-26T18:54:02.725Z,24.46
2022-08-26T18:56:30.565Z,24.47
2022-08-26T18:58:59.761Z,24.39
2022-08-26T19:01:29.496Z,24.45
2022-08-26T19:03:59.510Z,24.40
2022-08-26T19:06:31.502Z,24.42
2022-08-26T19:09:00.089Z,24.40
2022-08-26T19:11:32.135Z,24.37
2022-08-26T19:14:01.831Z,24.37
2022-08-26T19:16:31.049Z,24.36
2022-08-26T19:19:01.024Z,24.31
2022-08-26T19:21:29.604Z,24.33
2022-08-26T19:24:03.379Z,24.39
2022-08-26T19:26:31.664Z,24.40
2022-08-26T19:28:59.566Z,24.41
2022-08-26T19:31:27.198Z,24.41
2022-08-26T19:33:54.377Z,24.33
2022-08-26T19:36:25.355Z,24.11
2022-08-26T19:38:53.703Z,24.36
2022-08-26T19:41:36.457Z,24.30
2022-08-26T19:44:12.853Z,24.29
2022-08-26T19:46:40.937Z,24.35
2022-08-26T19:49:08.309Z,24.26
2022-08-26T19:51:36.558Z,24.37
2022-08-26T19:54:04.441Z,24.38
2022-08-26T19:56:31.945Z,24.34
2022-08-26T19:59:14.377Z,24.34
2022-08-26T20:01:41.429Z,24.34
2022-08-26T20:04:08.523Z,24.31
2022-08-26T20:06:35.573Z,24.06
2022-08-26T20:09:02.547Z,24.31
2022-08-26T20:11:29.791Z,24.28
2022-08-26T20:13:57.138Z,24.26
2022-08-26T20:16:24.207Z,24.22
2022-08-26T20:19:09.529Z,24.20
2022-08-26T20:21:39.763Z,24.20
2022-08-26T20:24:16.361Z,24.24
2022-08-26T20:26:45.179Z,24.22
2022-08-26T20:29:15.963Z,24.16
2022-08-26T20:31:44.162Z,24.20
2022-08-26T20:34:13.312Z,24.15
2022-08-26T20:36:44.135Z,24.19
2022-08-26T20:39:12.856Z,24.18
2022-08-26T20:41:43.923Z,24.20
2022-08-26T20:44:12.167Z,24.16
2022-08-26T20:46:39.965Z,24.18
2022-08-26T20:49:07.585Z,24.14
2022-08-26T20:51:37.301Z,24.11
2022-08-26T20:54:07.038Z,24.11
2022-08-26T20:56:34.389Z,24.07
2022-08-26T20:59:02.486Z,23.99
2022-08-26T21:01:34.786Z,23.98
2022-08-26T21:04:06.920Z,23.98
2022-08-26T21:06:36.220Z,23.95
2022-08-26T21:09:08.488Z,23.91
2022-08-26T21:11:44.577Z,23.93
2022-08-26T21:14:16.004Z,23.92
2022-08-26T21:16:46.301Z,23.87
2022-08-26T21:19:18.010Z,23.87
2022-08-26T21:21:48.158Z,23.88
2022-08-26T21:24:15.799Z,23.85
2022-08-26T21:26:43.774Z,23.82
2022-08-26T21:29:11.037Z,23.77
2022-08-26T21:31:44.859Z,23.77
2022-08-26T21:34:15.892Z,23.73
2022-08-26T21:36:43.307Z,23.77
2022-08-26T21:39:11.982Z,23.76
2022-08-26T21:41:42.051Z,23.75
2022-08-26T21:44:10.552Z,23.77
2022-08-26T21:46:37.767Z,23.70
2022-08-26T21:49:09.916Z,23.76
2022-08-26T21:51:43.194Z,23.76
2022-08-26T21:54:11.728Z,23.74
2022-08-26T21:56:46.507Z,23.74
2022-08-26T21:59:18.100Z,23.71
2022-08-26T22:01:45.808Z,23.72
2022-08-26T22:04:13.112Z,23.73
2022-08-26T22:06:45.038Z,23.73
2022-08-26T22:09:14.557Z,23.69
2022-08-26T22:11:42.023Z,23.71
2022-08-26T22:14:10.526Z,23.69
2022-08-26T22:16:38.256Z,23.75
2022-08-26T22:19:06.108Z,23.77
2022-08-26T22:21:35.669Z,23.78
2022-08-26T22:24:03.974Z,23.75
2022-08-26T22:26:33.133Z,23.78
2022-08-26T22:29:02.133Z,23.77
2022-08-26T22:31:37.864Z,23.77
2022-08-26T22:34:11.324Z,23.77
2022-08-26T22:36:43.978Z,23.75
2022-08-26T22:39:24.044Z,23.78
2022-08-26T22:41:53.549Z,23.79
2022-08-26T22:44:22.475Z,23.73
2022-08-26T22:46:54.276Z,23.66
2022-08-26T22:49:21.791Z,23.38
2022-08-26T22:51:49.277Z,23.29
2022-08-26T22:54:17.380Z,23.60
2022-08-26T22:56:45.435Z,23.56
2022-08-26T22:59:13.495Z,23.59
2022-08-26T23:01:43.457Z,23.51
2022-08-26T23:04:11.124Z,23.80
2022-08-26T23:06:43.059Z,23.31
2022-08-26T23:09:11.693Z,23.77
2022-08-26T23:11:43.011Z,23.29
2022-08-26T23:14:11.127Z,23.16
2022-08-26T23:16:41.859Z,23.67
2022-08-26T23:19:13.011Z,23.55
2022-08-26T23:21:40.702Z,23.53
2022-08-26T23:24:09.223Z,23.50
2022-08-26T23:26:38.197Z,23.75
2022-08-26T23:29:09.008Z,23.69
2022-08-26T23:31:39.211Z,23.71
2022-08-26T23:34:25.273Z,23.60
2022-08-26T23:36:53.883Z,23.49
2022-08-26T23:39:21.386Z,23.45
2022-08-26T23:41:48.537Z,23.42
2022-08-26T23:44:15.660Z,23.82
2022-08-26T23:46:42.923Z,23.66
2022-08-26T23:49:10.157Z,23.76
2022-08-26T23:51:57.683Z,23.78
2022-08-26T23:54:24.874Z,23.82
2022-08-26T23:56:52.017Z,23.78
2022-08-26T23:59:19.251Z,23.68
